EDT,Max TemperatureF,Mean TemperatureF,Min TemperatureF,Max Dew PointF,MeanDew PointF,Min DewpointF,Max Humidity, Mean Humidity, Min Humidity, Max Sea Level PressureIn, Mean Sea Level PressureIn, Min Sea Level PressureIn, Max VisibilityMiles, Mean VisibilityMiles, Min VisibilityMiles, Max Wind SpeedMPH, Mean Wind SpeedMPH, Max Gust SpeedMPH,PrecipitationIn, CloudCover, Events, WindDirDegrees
2012-10-1,57,53,48,54,51,46,93,88,83,29.74,29.61,29.57,10,9,2,9,6,17,0.08,6,Rain,199
2012-10-2,70,58,45,54,49,45,93,70,47,30.00,29.89,29.77,10,10,10,14,5,20,0.00,1,,237
2012-10-3,69,54,39,52,43,37,100,73,45,30.21,30.11,30.02,10,6,0,13,3,21,0.00,2,Fog,1
2012-10-4,62,51,40,51,45,38,100,78,55,30.26,30.14,30.03,10,9,4,8,1,12,0.38,5,Rain,157
2012-10-5,62,57,51,55,52,48,96,87,78,30.02,29.92,29.84,10,8,2,10,5,17,0.12,7,Rain,192
2012-10-6,67,56,45,59,53,43,96,85,73,29.85,29.73,29.59,10,6,1,21,8,30,0.66,7,Rain,213
2012-10-7,54,46,38,42,40,36,96,75,54,30.04,29.96,29.78,10,10,10,14,4,20,0.03,3,Rain,229
2012-10-8,51,40,28,42,34,28,92,67,42,30.36,30.15,30.02,10,9,4,17,5,24,0.36,5,Rain,291
2012-10-9,54,40,26,36,28,23,92,64,35,30.43,30.33,30.20,10,10,10,13,3,17,0.00,1,,126
2012-10-10,57,43,29,54,43,27,96,89,82,30.20,29.91,29.52,10,8,1,21,4,26,0.85,8,Rain,153
2012-10-11,51,41,31,50,37,25,89,66,42,29.99,29.71,29.54,10,9,1,29,10,43,0.07,6,Rain,268
2012-10-12,47,39,30,38,30,23,86,69,51,30.17,29.95,29.85,10,10,3,21,7,28,0.07,6,Rain,268
2012-10-13,45,36,26,25,22,18,85,61,36,30.30,30.25,30.18,10,10,10,20,8,29,0.00,0,,263
2012-10-14,39,35,30,37,34,25,100,82,64,30.26,30.09,29.98,10,4,1,9,3,14,0.20,8,Rain-Snow,103
2012-10-15,62,50,38,58,47,36,100,92,84,29.96,29.74,29.57,10,6,1,12,6,21,0.11,8,Rain,174
2012-10-16,59,48,37,57,45,31,93,85,76,29.69,29.53,29.45,10,7,2,18,6,25,0.57,7,Rain,303
2012-10-17,53,40,27,36,30,27,96,69,41,29.99,29.87,29.71,10,10,10,14,4,18,0.00,0,,295
2012-10-18,58,42,26,41,32,24,92,66,40,30.17,30.11,30.01,10,10,10,9,3,13,0.00,0,,176
2012-10-19,62,53,43,49,45,41,100,78,55,30.20,30.13,29.95,10,8,0,14,6,20,0.03,5,Fog-Rain,159
2012-10-20,64,59,53,61,59,50,93,90,86,29.91,29.72,29.59,10,5,1,15,8,23,1.56,8,Rain-Thunderstorm,139
2012-10-21,60,55,49,58,46,39,93,72,51,29.69,29.64,29.60,10,10,10,16,7,24,T,6,Rain,246
2012-10-22,56,48,40,40,36,29,71,57,43,29.85,29.68,29.62,10,10,10,20,11,26,T,6,,284
2012-10-23,52,42,32,31,28,27,75,57,38,30.09,29.96,29.86,10,10,10,22,9,30,0.00,2,,320
2012-10-24,48,36,23,27,25,22,92,65,38,30.25,30.15,30.07,10,10,10,20,5,24,0.00,0,,344
2012-10-25,52,37,21,29,23,18,92,61,30,30.35,30.29,30.26,10,10,9,9,1,12,0.00,0,,345
2012-10-26,63,45,26,43,34,24,92,68,43,30.27,30.19,30.11,10,10,10,8,1,10,0.00,1,,175
2012-10-27,65,51,36,44,38,28,93,62,31,30.15,30.12,30.08,10,10,6,13,3,16,0.00,2,,91
2012-10-28,58,45,32,48,41,30,93,80,67,30.16,30.11,30.04,10,10,5,12,4,15,0.00,6,,36
2012-10-29,58,55,51,52,50,48,89,85,80,30.02,29.96,29.90,10,6,1,22,12,31,0.03,8,Rain,64
2012-10-30,60,57,54,57,55,50,93,90,86,29.91,29.86,29.78,10,4,1,22,13,31,0.89,8,Rain-Thunderstorm,94
2012-10-31,62,60,57,58,57,55,93,90,87,29.78,29.61,29.48,10,6,1,21,8,29,1.02,8,Rain,126